sensor_id;sensor_type;location;lat;lon;timestamp;P1;durP1;ratioP1;P2;durP2;ratioP2
13560;SDS011;6852;51.686;5.314;2023-07-09T00:01:21;8.45;;;5.85;;
13560;SDS011;6852;51.686;5.314;2023-07-09T00:03:48;8.13;;;6.25;;
13560;SDS011;6852;51.686;5.314;2023-07-09T00:06:18;11.30;;;7.18;;
13560;SDS011;6852;51.686;5.314;2023-07-09T00:08:47;8.38;;;6.28;;
13560;SDS011;6852;51.686;5.314;2023-07-09T00:11:15;9.13;;;6.18;;
13560;SDS011;6852;51.686;5.314;2023-07-09T00:13:43;8.88;;;6.63;;
13560;SDS011;6852;51.686;5.314;2023-07-09T00:16:14;10.07;;;5.93;;
13560;SDS011;6852;51.686;5.314;2023-07-09T00:18:44;9.70;;;6.05;;
13560;SDS011;6852;51.686;5.314;2023-07-09T00:21:16;7.82;;;6.60;;
13560;SDS011;6852;51.686;5.314;2023-07-09T00:23:44;9.35;;;6.63;;
13560;SDS011;6852;51.686;5.314;2023-07-09T00:26:11;8.77;;;6.13;;
13560;SDS011;6852;51.686;5.314;2023-07-09T00:28:40;9.38;;;6.45;;
13560;SDS011;6852;51.686;5.314;2023-07-09T00:31:11;10.70;;;6.53;;
13560;SDS011;6852;51.686;5.314;2023-07-09T00:33:41;8.93;;;6.60;;
13560;SDS011;6852;51.686;5.314;2023-07-09T00:36:15;11.52;;;6.90;;
13560;SDS011;6852;51.686;5.314;2023-07-09T00:38:50;10.48;;;6.53;;
13560;SDS011;6852;51.686;5.314;2023-07-09T00:41:18;11.50;;;6.65;;
13560;SDS011;6852;51.686;5.314;2023-07-09T00:43:47;10.38;;;6.00;;
13560;SDS011;6852;51.686;5.314;2023-07-09T00:48:46;7.65;;;6.40;;
13560;SDS011;6852;51.686;5.314;2023-07-09T00:51:24;8.30;;;6.43;;
13560;SDS011;6852;51.686;5.314;2023-07-09T00:53:54;10.93;;;6.97;;
13560;SDS011;6852;51.686;5.314;2023-07-09T00:56:32;9.20;;;6.40;;
13560;SDS011;6852;51.686;5.314;2023-07-09T00:59:05;9.55;;;6.38;;
13560;SDS011;6852;51.686;5.314;2023-07-09T01:01:35;9.23;;;6.43;;
13560;SDS011;6852;51.686;5.314;2023-07-09T01:04:02;9.52;;;6.45;;
13560;SDS011;6852;51.686;5.314;2023-07-09T01:06:41;9.95;;;6.80;;
13560;SDS011;6852;51.686;5.314;2023-07-09T01:09:11;9.73;;;6.67;;
13560;SDS011;6852;51.686;5.314;2023-07-09T01:11:39;8.33;;;6.30;;
13560;SDS011;6852;51.686;5.314;2023-07-09T01:14:07;8.93;;;6.90;;
13560;SDS011;6852;51.686;5.314;2023-07-09T01:16:38;9.73;;;6.17;;
13560;SDS011;6852;51.686;5.314;2023-07-09T01:19:09;8.57;;;6.63;;
13560;SDS011;6852;51.686;5.314;2023-07-09T01:21:36;10.33;;;6.70;;
13560;SDS011;6852;51.686;5.314;2023-07-09T01:27:14;11.23;;;8.50;;
13560;SDS011;6852;51.686;5.314;2023-07-09T01:29:42;11.75;;;7.10;;
13560;SDS011;6852;51.686;5.314;2023-07-09T01:32:16;8.93;;;6.13;;
13560;SDS011;6852;51.686;5.314;2023-07-09T01:34:51;9.68;;;5.85;;
13560;SDS011;6852;51.686;5.314;2023-07-09T01:37:24;8.43;;;5.63;;
13560;SDS011;6852;51.686;5.314;2023-07-09T01:39:53;10.30;;;6.50;;
13560;SDS011;6852;51.686;5.314;2023-07-09T01:42:21;7.97;;;6.23;;
13560;SDS011;6852;51.686;5.314;2023-07-09T01:44:50;9.73;;;6.53;;
13560;SDS011;6852;51.686;5.314;2023-07-09T01:47:19;8.83;;;6.67;;
13560;SDS011;6852;51.686;5.314;2023-07-09T01:49:48;9.93;;;5.85;;
13560;SDS011;6852;51.686;5.314;2023-07-09T01:52:16;9.23;;;6.60;;
13560;SDS011;6852;51.686;5.314;2023-07-09T01:54:45;9.87;;;6.43;;
13560;SDS011;6852;51.686;5.314;2023-07-09T01:57:19;11.07;;;7.33;;
13560;SDS011;6852;51.686;5.314;2023-07-09T01:59:51;10.80;;;7.73;;
13560;SDS011;6852;51.686;5.314;2023-07-09T02:02:21;9.83;;;6.80;;
13560;SDS011;6852;51.686;5.314;2023-07-09T02:04:50;16.03;;;9.40;;
13560;SDS011;6852;51.686;5.314;2023-07-09T02:07:19;9.80;;;7.40;;
13560;SDS011;6852;51.686;5.314;2023-07-09T02:09:46;9.37;;;7.70;;
13560;SDS011;6852;51.686;5.314;2023-07-09T02:12:15;12.13;;;8.37;;
13560;SDS011;6852;51.686;5.314;2023-07-09T02:14:42;12.37;;;9.63;;
13560;SDS011;6852;51.686;5.314;2023-07-09T02:17:11;13.50;;;10.47;;
13560;SDS011;6852;51.686;5.314;2023-07-09T02:19:40;11.33;;;9.63;;
13560;SDS011;6852;51.686;5.314;2023-07-09T02:22:07;13.23;;;10.13;;
13560;SDS011;6852;51.686;5.314;2023-07-09T02:24:35;18.77;;;11.60;;
13560;SDS011;6852;51.686;5.314;2023-07-09T02:27:03;12.97;;;10.47;;
13560;SDS011;6852;51.686;5.314;2023-07-09T02:29:33;12.63;;;10.47;;
13560;SDS011;6852;51.686;5.314;2023-07-09T02:32:00;17.33;;;11.17;;
13560;SDS011;6852;51.686;5.314;2023-07-09T02:34:27;13.90;;;11.67;;
13560;SDS011;6852;51.686;5.314;2023-07-09T02:36:56;15.00;;;11.63;;
13560;SDS011;6852;51.686;5.314;2023-07-09T02:39:24;13.70;;;11.00;;
13560;SDS011;6852;51.686;5.314;2023-07-09T02:41:52;13.77;;;10.17;;
13560;SDS011;6852;51.686;5.314;2023-07-09T02:44:20;16.33;;;11.23;;
13560;SDS011;6852;51.686;5.314;2023-07-09T02:46:47;14.50;;;10.83;;
13560;SDS011;6852;51.686;5.314;2023-07-09T02:49:14;15.57;;;10.97;;
13560;SDS011;6852;51.686;5.314;2023-07-09T02:51:42;16.67;;;11.77;;
13560;SDS011;6852;51.686;5.314;2023-07-09T02:54:09;14.53;;;10.33;;
13560;SDS011;6852;51.686;5.314;2023-07-09T02:56:36;15.50;;;11.50;;
13560;SDS011;6852;51.686;5.314;2023-07-09T02:59:04;12.07;;;10.60;;
13560;SDS011;6852;51.686;5.314;2023-07-09T03:01:31;16.17;;;11.00;;
13560;SDS011;6852;51.686;5.314;2023-07-09T03:04:01;15.73;;;11.83;;
13560;SDS011;6852;51.686;5.314;2023-07-09T03:06:30;12.93;;;11.23;;
13560;SDS011;6852;51.686;5.314;2023-07-09T03:09:01;13.00;;;11.53;;
13560;SDS011;6852;51.686;5.314;2023-07-09T03:11:32;13.83;;;10.87;;
13560;SDS011;6852;51.686;5.314;2023-07-09T03:14:01;15.33;;;12.53;;
13560;SDS011;6852;51.686;5.314;2023-07-09T03:16:29;14.53;;;11.67;;
13560;SDS011;6852;51.686;5.314;2023-07-09T03:18:58;16.07;;;11.50;;
13560;SDS011;6852;51.686;5.314;2023-07-09T03:21:26;13.50;;;10.87;;
13560;SDS011;6852;51.686;5.314;2023-07-09T03:23:54;14.33;;;11.47;;
13560;SDS011;6852;51.686;5.314;2023-07-09T03:26:21;15.67;;;12.13;;
13560;SDS011;6852;51.686;5.314;2023-07-09T03:28:48;16.93;;;12.43;;
13560;SDS011;6852;51.686;5.314;2023-07-09T03:31:14;14.07;;;11.27;;
13560;SDS011;6852;51.686;5.314;2023-07-09T03:33:42;14.77;;;11.00;;
13560;SDS011;6852;51.686;5.314;2023-07-09T03:36:09;12.60;;;11.10;;
13560;SDS011;6852;51.686;5.314;2023-07-09T03:38:36;17.37;;;11.80;;
13560;SDS011;6852;51.686;5.314;2023-07-09T03:41:04;12.50;;;11.03;;
13560;SDS011;6852;51.686;5.314;2023-07-09T03:43:31;14.57;;;11.30;;
13560;SDS011;6852;51.686;5.314;2023-07-09T03:45:58;17.67;;;11.10;;
13560;SDS011;6852;51.686;5.314;2023-07-09T03:48:24;15.67;;;11.73;;
13560;SDS011;6852;51.686;5.314;2023-07-09T03:50:51;15.50;;;11.47;;
13560;SDS011;6852;51.686;5.314;2023-07-09T03:53:18;15.53;;;11.23;;
13560;SDS011;6852;51.686;5.314;2023-07-09T03:55:45;14.60;;;12.03;;
13560;SDS011;6852;51.686;5.314;2023-07-09T03:58:13;15.20;;;10.83;;
13560;SDS011;6852;51.686;5.314;2023-07-09T04:00:40;13.60;;;10.90;;
13560;SDS011;6852;51.686;5.314;2023-07-09T04:03:07;15.70;;;10.20;;
13560;SDS011;6852;51.686;5.314;2023-07-09T04:05:34;15.47;;;11.50;;
13560;SDS011;6852;51.686;5.314;2023-07-09T04:08:02;14.63;;;10.70;;
13560;SDS011;6852;51.686;5.314;2023-07-09T04:10:29;15.87;;;11.43;;
13560;SDS011;6852;51.686;5.314;2023-07-09T04:12:56;15.00;;;11.87;;
13560;SDS011;6852;51.686;5.314;2023-07-09T04:15:23;15.20;;;11.27;;
13560;SDS011;6852;51.686;5.314;2023-07-09T04:17:50;13.87;;;12.40;;
13560;SDS011;6852;51.686;5.314;2023-07-09T04:20:18;19.50;;;13.00;;
13560;SDS011;6852;51.686;5.314;2023-07-09T04:22:45;15.10;;;12.30;;
13560;SDS011;6852;51.686;5.314;2023-07-09T04:25:12;19.23;;;13.97;;
13560;SDS011;6852;51.686;5.314;2023-07-09T04:27:39;17.87;;;13.77;;
13560;SDS011;6852;51.686;5.314;2023-07-09T04:30:08;15.70;;;13.93;;
13560;SDS011;6852;51.686;5.314;2023-07-09T04:32:38;17.40;;;13.27;;
13560;SDS011;6852;51.686;5.314;2023-07-09T04:35:05;22.33;;;16.60;;
13560;SDS011;6852;51.686;5.314;2023-07-09T04:37:35;18.93;;;15.13;;
13560;SDS011;6852;51.686;5.314;2023-07-09T04:40:02;18.67;;;15.23;;
13560;SDS011;6852;51.686;5.314;2023-07-09T04:42:33;25.27;;;18.40;;
13560;SDS011;6852;51.686;5.314;2023-07-09T04:44:59;21.43;;;17.37;;
13560;SDS011;6852;51.686;5.314;2023-07-09T04:47:26;19.60;;;15.57;;
13560;SDS011;6852;51.686;5.314;2023-07-09T04:49:53;25.83;;;16.90;;
13560;SDS011;6852;51.686;5.314;2023-07-09T04:52:20;22.83;;;15.10;;
13560;SDS011;6852;51.686;5.314;2023-07-09T04:54:48;17.43;;;14.50;;
13560;SDS011;6852;51.686;5.314;2023-07-09T04:57:16;18.90;;;14.63;;
13560;SDS011;6852;51.686;5.314;2023-07-09T04:59:44;17.43;;;14.97;;
13560;SDS011;6852;51.686;5.314;2023-07-09T05:02:11;19.03;;;15.37;;
13560;SDS011;6852;51.686;5.314;2023-07-09T05:04:37;22.50;;;16.43;;
13560;SDS011;6852;51.686;5.314;2023-07-09T05:07:04;22.43;;;15.73;;
13560;SDS011;6852;51.686;5.314;2023-07-09T05:09:32;18.53;;;16.40;;
13560;SDS011;6852;51.686;5.314;2023-07-09T05:11:59;21.10;;;16.27;;
13560;SDS011;6852;51.686;5.314;2023-07-09T05:14:27;24.03;;;17.23;;
13560;SDS011;6852;51.686;5.314;2023-07-09T05:16:54;20.97;;;16.40;;
13560;SDS011;6852;51.686;5.314;2023-07-09T05:19:20;21.17;;;14.93;;
13560;SDS011;6852;51.686;5.314;2023-07-09T05:21:47;17.53;;;15.47;;
13560;SDS011;6852;51.686;5.314;2023-07-09T05:24:14;18.70;;;15.50;;
13560;SDS011;6852;51.686;5.314;2023-07-09T05:26:41;16.90;;;15.00;;
13560;SDS011;6852;51.686;5.314;2023-07-09T05:29:08;23.67;;;15.37;;
13560;SDS011;6852;51.686;5.314;2023-07-09T05:31:35;16.67;;;13.93;;
13560;SDS011;6852;51.686;5.314;2023-07-09T05:34:02;17.43;;;14.53;;
13560;SDS011;6852;51.686;5.314;2023-07-09T05:36:29;16.07;;;14.47;;
13560;SDS011;6852;51.686;5.314;2023-07-09T05:38:56;17.07;;;14.93;;
13560;SDS011;6852;51.686;5.314;2023-07-09T05:41:23;17.53;;;14.70;;
13560;SDS011;6852;51.686;5.314;2023-07-09T05:43:51;18.58;;;14.63;;
13560;SDS011;6852;51.686;5.314;2023-07-09T05:46:18;17.57;;;14.30;;
13560;SDS011;6852;51.686;5.314;2023-07-09T05:48:48;18.43;;;14.63;;
13560;SDS011;6852;51.686;5.314;2023-07-09T05:51:15;21.30;;;14.97;;
13560;SDS011;6852;51.686;5.314;2023-07-09T05:53:41;18.00;;;14.37;;
13560;SDS011;6852;51.686;5.314;2023-07-09T05:56:08;15.60;;;14.00;;
13560;SDS011;6852;51.686;5.314;2023-07-09T05:58:36;16.40;;;14.70;;
13560;SDS011;6852;51.686;5.314;2023-07-09T06:01:03;17.13;;;13.83;;
13560;SDS011;6852;51.686;5.314;2023-07-09T06:03:30;16.63;;;14.20;;
13560;SDS011;6852;51.686;5.314;2023-07-09T06:05:57;19.00;;;14.97;;
13560;SDS011;6852;51.686;5.314;2023-07-09T06:08:26;17.52;;;14.80;;
13560;SDS011;6852;51.686;5.314;2023-07-09T06:10:57;16.53;;;14.67;;
13560;SDS011;6852;51.686;5.314;2023-07-09T06:13:29;16.85;;;14.93;;
13560;SDS011;6852;51.686;5.314;2023-07-09T06:15:57;17.17;;;14.48;;
13560;SDS011;6852;51.686;5.314;2023-07-09T06:18:26;17.10;;;15.00;;
13560;SDS011;6852;51.686;5.314;2023-07-09T06:20:57;19.33;;;14.50;;
13560;SDS011;6852;51.686;5.314;2023-07-09T06:23:26;17.30;;;14.02;;
13560;SDS011;6852;51.686;5.314;2023-07-09T06:25:53;16.85;;;14.80;;
13560;SDS011;6852;51.686;5.314;2023-07-09T06:28:21;16.77;;;14.35;;
13560;SDS011;6852;51.686;5.314;2023-07-09T06:30:50;21.48;;;15.68;;
13560;SDS011;6852;51.686;5.314;2023-07-09T06:33:17;17.00;;;13.80;;
13560;SDS011;6852;51.686;5.314;2023-07-09T06:35:46;18.67;;;14.43;;
13560;SDS011;6852;51.686;5.314;2023-07-09T06:38:19;20.50;;;14.30;;
13560;SDS011;6852;51.686;5.314;2023-07-09T06:40:46;18.27;;;14.38;;
13560;SDS011;6852;51.686;5.314;2023-07-09T06:43:13;19.27;;;14.63;;
13560;SDS011;6852;51.686;5.314;2023-07-09T06:45:54;15.93;;;14.00;;
13560;SDS011;6852;51.686;5.314;2023-07-09T06:48:23;19.40;;;12.98;;
13560;SDS011;6852;51.686;5.314;2023-07-09T06:50:51;15.00;;;12.68;;
13560;SDS011;6852;51.686;5.314;2023-07-09T06:53:20;16.65;;;12.63;;
13560;SDS011;6852;51.686;5.314;2023-07-09T06:55:47;13.45;;;10.85;;
13560;SDS011;6852;51.686;5.314;2023-07-09T06:58:22;16.17;;;11.23;;
13560;SDS011;6852;51.686;5.314;2023-07-09T07:00:51;14.68;;;10.93;;
13560;SDS011;6852;51.686;5.314;2023-07-09T07:03:18;13.88;;;10.57;;
13560;SDS011;6852;51.686;5.314;2023-07-09T07:05:45;11.63;;;9.80;;
13560;SDS011;6852;51.686;5.314;2023-07-09T07:08:14;14.00;;;9.73;;
13560;SDS011;6852;51.686;5.314;2023-07-09T07:10:42;12.70;;;8.68;;
13560;SDS011;6852;51.686;5.314;2023-07-09T07:13:10;10.73;;;8.68;;
13560;SDS011;6852;51.686;5.314;2023-07-09T07:15:37;12.48;;;8.18;;
13560;SDS011;6852;51.686;5.314;2023-07-09T07:18:04;12.88;;;9.93;;
13560;SDS011;6852;51.686;5.314;2023-07-09T07:20:33;8.85;;;7.45;;
13560;SDS011;6852;51.686;5.314;2023-07-09T07:23:00;10.48;;;7.78;;
13560;SDS011;6852;51.686;5.314;2023-07-09T07:25:27;9.63;;;7.80;;
13560;SDS011;6852;51.686;5.314;2023-07-09T07:27:54;9.15;;;7.78;;
13560;SDS011;6852;51.686;5.314;2023-07-09T07:30:20;11.75;;;7.57;;
13560;SDS011;6852;51.686;5.314;2023-07-09T07:32:51;9.43;;;7.38;;
13560;SDS011;6852;51.686;5.314;2023-07-09T07:35:18;8.85;;;7.30;;
13560;SDS011;6852;51.686;5.314;2023-07-09T07:37:46;10.95;;;7.30;;
13560;SDS011;6852;51.686;5.314;2023-07-09T07:40:13;6.80;;;5.82;;
13560;SDS011;6852;51.686;5.314;2023-07-09T07:42:40;10.68;;;6.20;;
13560;SDS011;6852;51.686;5.314;2023-07-09T07:45:07;10.50;;;6.63;;
13560;SDS011;6852;51.686;5.314;2023-07-09T07:47:34;10.05;;;6.80;;
13560;SDS011;6852;51.686;5.314;2023-07-09T07:50:03;11.20;;;7.22;;
13560;SDS011;6852;51.686;5.314;2023-07-09T07:52:31;9.85;;;6.45;;
13560;SDS011;6852;51.686;5.314;2023-07-09T07:54:58;9.75;;;5.70;;
13560;SDS011;6852;51.686;5.314;2023-07-09T07:57:25;8.70;;;6.40;;
13560;SDS011;6852;51.686;5.314;2023-07-09T07:59:52;7.75;;;6.07;;
13560;SDS011;6852;51.686;5.314;2023-07-09T08:02:20;10.38;;;6.53;;
13560;SDS011;6852;51.686;5.314;2023-07-09T08:04:47;9.85;;;6.63;;
13560;SDS011;6852;51.686;5.314;2023-07-09T08:07:14;7.10;;;5.85;;
13560;SDS011;6852;51.686;5.314;2023-07-09T08:09:41;6.50;;;5.75;;
13560;SDS011;6852;51.686;5.314;2023-07-09T08:12:08;6.72;;;5.38;;
13560;SDS011;6852;51.686;5.314;2023-07-09T08:14:41;6.18;;;5.55;;
13560;SDS011;6852;51.686;5.314;2023-07-09T08:17:11;8.27;;;5.53;;
13560;SDS011;6852;51.686;5.314;2023-07-09T08:19:49;8.77;;;5.40;;
13560;SDS011;6852;51.686;5.314;2023-07-09T08:22:17;7.70;;;5.85;;
13560;SDS011;6852;51.686;5.314;2023-07-09T08:24:47;6.80;;;5.78;;
13560;SDS011;6852;51.686;5.314;2023-07-09T08:27:17;8.25;;;5.93;;
13560;SDS011;6852;51.686;5.314;2023-07-09T08:29:46;8.77;;;5.57;;
13560;SDS011;6852;51.686;5.314;2023-07-09T08:32:13;9.43;;;5.90;;
13560;SDS011;6852;51.686;5.314;2023-07-09T08:34:41;6.55;;;5.80;;
13560;SDS011;6852;51.686;5.314;2023-07-09T08:37:28;7.40;;;5.53;;
13560;SDS011;6852;51.686;5.314;2023-07-09T08:39:55;9.82;;;5.50;;
13560;SDS011;6852;51.686;5.314;2023-07-09T08:42:32;8.27;;;5.30;;
13560;SDS011;6852;51.686;5.314;2023-07-09T08:48:09;7.38;;;6.10;;
13560;SDS011;6852;51.686;5.314;2023-07-09T08:50:55;13.02;;;5.68;;
13560;SDS011;6852;51.686;5.314;2023-07-09T08:54:12;6.85;;;5.15;;
13560;SDS011;6852;51.686;5.314;2023-07-09T08:56:17;5.90;;;4.93;;
13560;SDS011;6852;51.686;5.314;2023-07-09T08:58:45;5.45;;;4.90;;
13560;SDS011;6852;51.686;5.314;2023-07-09T09:01:18;8.18;;;5.45;;
13560;SDS011;6852;51.686;5.314;2023-07-09T09:03:52;11.23;;;5.53;;
13560;SDS011;6852;51.686;5.314;2023-07-09T09:06:26;5.97;;;5.38;;
13560;SDS011;6852;51.686;5.314;2023-07-09T09:11:49;8.55;;;5.25;;
13560;SDS011;6852;51.686;5.314;2023-07-09T09:16:57;6.50;;;5.47;;
13560;SDS011;6852;51.686;5.314;2023-07-09T09:19:29;5.82;;;5.28;;
13560;SDS011;6852;51.686;5.314;2023-07-09T09:22:07;8.23;;;5.15;;
13560;SDS011;6852;51.686;5.314;2023-07-09T09:24:51;6.03;;;4.43;;
13560;SDS011;6852;51.686;5.314;2023-07-09T09:27:29;8.07;;;4.88;;
13560;SDS011;6852;51.686;5.314;2023-07-09T09:29:57;7.65;;;5.82;;
13560;SDS011;6852;51.686;5.314;2023-07-09T09:32:27;6.88;;;5.25;;
13560;SDS011;6852;51.686;5.314;2023-07-09T09:34:56;6.32;;;4.57;;
13560;SDS011;6852;51.686;5.314;2023-07-09T09:37:32;6.15;;;5.10;;
13560;SDS011;6852;51.686;5.314;2023-07-09T09:40:00;7.32;;;5.00;;
13560;SDS011;6852;51.686;5.314;2023-07-09T09:42:29;5.85;;;4.85;;
13560;SDS011;6852;51.686;5.314;2023-07-09T09:44:56;10.05;;;4.85;;
13560;SDS011;6852;51.686;5.314;2023-07-09T09:47:25;7.15;;;4.53;;
13560;SDS011;6852;51.686;5.314;2023-07-09T09:49:54;8.43;;;4.57;;
13560;SDS011;6852;51.686;5.314;2023-07-09T09:52:24;6.15;;;4.88;;
13560;SDS011;6852;51.686;5.314;2023-07-09T09:55:02;6.72;;;4.82;;
13560;SDS011;6852;51.686;5.314;2023-07-09T09:57:36;7.80;;;5.00;;
13560;SDS011;6852;51.686;5.314;2023-07-09T10:00:04;6.20;;;4.93;;
13560;SDS011;6852;51.686;5.314;2023-07-09T10:02:38;8.27;;;4.72;;
13560;SDS011;6852;51.686;5.314;2023-07-09T10:05:29;6.75;;;4.75;;
13560;SDS011;6852;51.686;5.314;2023-07-09T10:08:09;7.55;;;4.50;;
13560;SDS011;6852;51.686;5.314;2023-07-09T10:13:52;6.55;;;5.72;;
13560;SDS011;6852;51.686;5.314;2023-07-09T10:16:27;10.88;;;5.30;;
13560;SDS011;6852;51.686;5.314;2023-07-09T10:19:12;6.10;;;4.55;;
13560;SDS011;6852;51.686;5.314;2023-07-09T10:22:34;8.00;;;5.43;;
13560;SDS011;6852;51.686;5.314;2023-07-09T10:27:31;6.93;;;5.18;;
13560;SDS011;6852;51.686;5.314;2023-07-09T10:30:13;8.65;;;5.55;;
13560;SDS011;6852;51.686;5.314;2023-07-09T10:35:37;7.07;;;5.00;;
13560;SDS011;6852;51.686;5.314;2023-07-09T10:40:47;7.65;;;4.95;;
13560;SDS011;6852;51.686;5.314;2023-07-09T10:43:22;7.82;;;5.43;;
13560;SDS011;6852;51.686;5.314;2023-07-09T10:46:01;8.38;;;5.25;;
13560;SDS011;6852;51.686;5.314;2023-07-09T10:48:41;8.60;;;5.20;;
13560;SDS011;6852;51.686;5.314;2023-07-09T10:51:17;7.53;;;5.95;;
13560;SDS011;6852;51.686;5.314;2023-07-09T10:56:54;5.65;;;4.97;;
13560;SDS011;6852;51.686;5.314;2023-07-09T11:02:23;6.90;;;5.35;;
13560;SDS011;6852;51.686;5.314;2023-07-09T11:04:53;6.70;;;5.22;;
13560;SDS011;6852;51.686;5.314;2023-07-09T11:10:29;13.70;;;11.23;;
13560;SDS011;6852;51.686;5.314;2023-07-09T11:13:13;7.70;;;5.53;;
13560;SDS011;6852;51.686;5.314;2023-07-09T11:15:48;9.00;;;6.20;;
13560;SDS011;6852;51.686;5.314;2023-07-09T11:18:20;7.53;;;5.20;;
13560;SDS011;6852;51.686;5.314;2023-07-09T11:21:00;8.98;;;5.50;;
13560;SDS011;6852;51.686;5.314;2023-07-09T11:23:50;6.85;;;5.20;;
13560;SDS011;6852;51.686;5.314;2023-07-09T11:28:51;5.88;;;5.13;;
13560;SDS011;6852;51.686;5.314;2023-07-09T11:31:35;7.00;;;5.70;;
13560;SDS011;6852;51.686;5.314;2023-07-09T11:36:34;5.80;;;5.15;;
13560;SDS011;6852;51.686;5.314;2023-07-09T11:39:19;7.63;;;5.63;;
13560;SDS011;6852;51.686;5.314;2023-07-09T11:41:53;6.10;;;5.50;;
13560;SDS011;6852;51.686;5.314;2023-07-09T11:44:25;7.13;;;5.72;;
13560;SDS011;6852;51.686;5.314;2023-07-09T11:50:29;8.32;;;5.57;;
13560;SDS011;6852;51.686;5.314;2023-07-09T11:53:00;8.93;;;4.53;;
13560;SDS011;6852;51.686;5.314;2023-07-09T11:55:43;5.35;;;4.88;;
13560;SDS011;6852;51.686;5.314;2023-07-09T11:58:15;8.20;;;4.90;;
13560;SDS011;6852;51.686;5.314;2023-07-09T12:00:48;7.70;;;5.38;;
13560;SDS011;6852;51.686;5.314;2023-07-09T12:03:19;6.60;;;5.63;;
13560;SDS011;6852;51.686;5.314;2023-07-09T12:05:48;7.43;;;5.47;;
13560;SDS011;6852;51.686;5.314;2023-07-09T12:08:27;8.70;;;6.25;;
13560;SDS011;6852;51.686;5.314;2023-07-09T12:11:06;8.63;;;5.90;;
13560;SDS011;6852;51.686;5.314;2023-07-09T12:13:43;8.30;;;6.63;;
13560;SDS011;6852;51.686;5.314;2023-07-09T12:16:30;7.10;;;6.22;;
13560;SDS011;6852;51.686;5.314;2023-07-09T12:19:00;10.52;;;6.97;;
13560;SDS011;6852;51.686;5.314;2023-07-09T12:21:27;12.63;;;7.55;;
13560;SDS011;6852;51.686;5.314;2023-07-09T12:23:54;11.40;;;8.93;;
13560;SDS011;6852;51.686;5.314;2023-07-09T12:26:24;12.02;;;8.98;;
13560;SDS011;6852;51.686;5.314;2023-07-09T12:28:51;12.30;;;10.43;;
13560;SDS011;6852;51.686;5.314;2023-07-09T12:31:21;14.90;;;10.82;;
13560;SDS011;6852;51.686;5.314;2023-07-09T12:33:57;16.58;;;11.18;;
13560;SDS011;6852;51.686;5.314;2023-07-09T12:36:25;18.10;;;14.32;;
13560;SDS011;6852;51.686;5.314;2023-07-09T12:38:56;13.32;;;11.95;;
13560;SDS011;6852;51.686;5.314;2023-07-09T12:41:35;14.63;;;11.90;;
13560;SDS011;6852;51.686;5.314;2023-07-09T12:44:26;13.82;;;10.90;;
13560;SDS011;6852;51.686;5.314;2023-07-09T12:46:56;16.00;;;14.15;;
13560;SDS011;6852;51.686;5.314;2023-07-09T12:51:55;13.38;;;11.98;;
13560;SDS011;6852;51.686;5.314;2023-07-09T12:54:23;13.48;;;11.85;;
13560;SDS011;6852;51.686;5.314;2023-07-09T12:56:51;15.60;;;13.25;;
13560;SDS011;6852;51.686;5.314;2023-07-09T12:59:21;14.00;;;11.18;;
13560;SDS011;6852;51.686;5.314;2023-07-09T13:01:59;13.02;;;11.73;;
13560;SDS011;6852;51.686;5.314;2023-07-09T13:04:40;14.50;;;11.50;;
13560;SDS011;6852;51.686;5.314;2023-07-09T13:09:52;14.32;;;12.20;;
13560;SDS011;6852;51.686;5.314;2023-07-09T13:12:28;14.75;;;11.23;;
13560;SDS011;6852;51.686;5.314;2023-07-09T13:14:57;14.50;;;11.07;;
13560;SDS011;6852;51.686;5.314;2023-07-09T13:17:29;11.10;;;10.00;;
13560;SDS011;6852;51.686;5.314;2023-07-09T13:19:57;14.35;;;10.98;;
13560;SDS011;6852;51.686;5.314;2023-07-09T13:22:27;13.90;;;10.02;;
13560;SDS011;6852;51.686;5.314;2023-07-09T13:24:54;13.02;;;10.25;;
13560;SDS011;6852;51.686;5.314;2023-07-09T13:27:21;11.38;;;10.10;;
13560;SDS011;6852;51.686;5.314;2023-07-09T13:29:49;13.20;;;10.98;;
13560;SDS011;6852;51.686;5.314;2023-07-09T13:32:17;12.50;;;9.07;;
13560;SDS011;6852;51.686;5.314;2023-07-09T13:34:44;8.68;;;7.68;;
13560;SDS011;6852;51.686;5.314;2023-07-09T13:37:12;12.60;;;8.95;;
13560;SDS011;6852;51.686;5.314;2023-07-09T13:39:41;12.15;;;8.88;;
13560;SDS011;6852;51.686;5.314;2023-07-09T13:42:14;11.43;;;9.20;;
13560;SDS011;6852;51.686;5.314;2023-07-09T13:44:44;8.50;;;7.57;;
13560;SDS011;6852;51.686;5.314;2023-07-09T13:47:13;10.00;;;7.50;;
13560;SDS011;6852;51.686;5.314;2023-07-09T13:49:43;7.82;;;7.03;;
13560;SDS011;6852;51.686;5.314;2023-07-09T13:52:17;9.00;;;6.78;;
13560;SDS011;6852;51.686;5.314;2023-07-09T13:54:46;10.40;;;5.78;;
13560;SDS011;6852;51.686;5.314;2023-07-09T13:57:15;6.63;;;5.75;;
13560;SDS011;6852;51.686;5.314;2023-07-09T13:59:44;8.35;;;6.00;;
13560;SDS011;6852;51.686;5.314;2023-07-09T14:02:24;6.95;;;5.60;;
13560;SDS011;6852;51.686;5.314;2023-07-09T14:05:01;7.78;;;5.68;;
13560;SDS011;6852;51.686;5.314;2023-07-09T14:07:31;7.40;;;5.72;;
13560;SDS011;6852;51.686;5.314;2023-07-09T14:10:00;8.32;;;4.40;;
13560;SDS011;6852;51.686;5.314;2023-07-09T14:12:28;7.22;;;4.57;;
13560;SDS011;6852;51.686;5.314;2023-07-09T14:14:58;10.77;;;5.07;;
13560;SDS011;6852;51.686;5.314;2023-07-09T14:17:26;17.48;;;5.07;;
13560;SDS011;6852;51.686;5.314;2023-07-09T14:19:54;12.50;;;4.50;;
13560;SDS011;6852;51.686;5.314;2023-07-09T14:22:35;11.38;;;4.65;;
13560;SDS011;6852;51.686;5.314;2023-07-09T14:25:04;7.05;;;4.65;;
13560;SDS011;6852;51.686;5.314;2023-07-09T14:27:32;8.38;;;4.28;;
13560;SDS011;6852;51.686;5.314;2023-07-09T14:29:59;8.20;;;4.47;;
13560;SDS011;6852;51.686;5.314;2023-07-09T14:35:18;6.77;;;3.47;;
13560;SDS011;6852;51.686;5.314;2023-07-09T14:37:47;6.90;;;4.03;;
13560;SDS011;6852;51.686;5.314;2023-07-09T14:40:17;5.57;;;3.80;;
13560;SDS011;6852;51.686;5.314;2023-07-09T14:42:46;7.90;;;4.03;;
13560;SDS011;6852;51.686;5.314;2023-07-09T14:47:46;7.87;;;5.23;;
13560;SDS011;6852;51.686;5.314;2023-07-09T14:50:13;7.73;;;4.33;;
13560;SDS011;6852;51.686;5.314;2023-07-09T14:52:41;7.87;;;4.60;;
13560;SDS011;6852;51.686;5.314;2023-07-09T14:55:13;6.00;;;4.43;;
13560;SDS011;6852;51.686;5.314;2023-07-09T14:57:45;7.00;;;4.53;;
13560;SDS011;6852;51.686;5.314;2023-07-09T15:00:15;9.07;;;5.07;;
13560;SDS011;6852;51.686;5.314;2023-07-09T15:02:45;6.53;;;4.30;;
13560;SDS011;6852;51.686;5.314;2023-07-09T15:05:15;8.27;;;4.80;;
13560;SDS011;6852;51.686;5.314;2023-07-09T15:07:44;6.47;;;4.80;;
13560;SDS011;6852;51.686;5.314;2023-07-09T15:10:15;9.33;;;4.60;;
13560;SDS011;6852;51.686;5.314;2023-07-09T15:12:53;7.80;;;4.87;;
13560;SDS011;6852;51.686;5.314;2023-07-09T15:15:31;9.43;;;4.43;;
13560;SDS011;6852;51.686;5.314;2023-07-09T15:18:07;7.73;;;4.83;;
13560;SDS011;6852;51.686;5.314;2023-07-09T15:20:37;10.50;;;5.20;;
13560;SDS011;6852;51.686;5.314;2023-07-09T15:23:05;9.63;;;5.23;;
13560;SDS011;6852;51.686;5.314;2023-07-09T15:25:32;9.00;;;5.00;;
13560;SDS011;6852;51.686;5.314;2023-07-09T15:27:59;9.50;;;4.77;;
13560;SDS011;6852;51.686;5.314;2023-07-09T15:30:26;8.47;;;5.17;;
13560;SDS011;6852;51.686;5.314;2023-07-09T15:32:55;10.10;;;5.10;;
13560;SDS011;6852;51.686;5.314;2023-07-09T15:35:31;9.50;;;5.27;;
13560;SDS011;6852;51.686;5.314;2023-07-09T15:38:01;8.97;;;4.80;;
13560;SDS011;6852;51.686;5.314;2023-07-09T15:40:38;9.87;;;4.40;;
13560;SDS011;6852;51.686;5.314;2023-07-09T15:43:05;7.43;;;4.10;;
13560;SDS011;6852;51.686;5.314;2023-07-09T15:45:37;9.63;;;4.33;;
13560;SDS011;6852;51.686;5.314;2023-07-09T15:48:09;7.23;;;4.10;;
13560;SDS011;6852;51.686;5.314;2023-07-09T15:50:47;6.33;;;4.00;;
13560;SDS011;6852;51.686;5.314;2023-07-09T15:53:14;5.90;;;4.57;;
13560;SDS011;6852;51.686;5.314;2023-07-09T15:55:41;5.72;;;3.72;;
13560;SDS011;6852;51.686;5.314;2023-07-09T15:58:08;9.03;;;3.57;;
13560;SDS011;6852;51.686;5.314;2023-07-09T16:00:42;8.47;;;5.03;;